Time;durP1;ratioP1;P1;durP2;ratioP2;P2;SDS_P1;SDS_P2;PMS_P1;PMS_P2;Temp;Humidity;BMP_temperature;BMP_pressure;BME280_temperature;BME280_humidity;BME280_pressure;Samples;Min_cycle;Max_cycle;Signal;HPM_P1;HPM_P2
2022/08/14 00:01:45;;;;;;;4.73;4.33;;;13.30;63.10;;;;;;4179010;28;20216;-73
2022/08/14 00:03:45;;;;;;;5.37;4.97;;;13.30;63.20;;;;;;4178428;28;20208;-73
2022/08/14 00:05:46;;;;;;;3.40;3.10;;;13.30;63.50;;;;;;4178809;28;20222;-73
2022/08/14 00:07:48;;;;;;;3.30;3.00;;;13.20;63.80;;;;;;4180854;28;20208;-72
2022/08/14 00:09:48;;;;;;;3.83;3.23;;;13.10;63.90;;;;;;4179994;28;20173;-73
2022/08/14 00:11:49;;;;;;;3.03;2.70;;;13.10;64.50;;;;;;4178833;28;20763;-73
2022/08/14 00:13:50;;;;;;;2.93;2.33;;;13.00;64.80;;;;;;4180055;28;20250;-74
2022/08/14 00:15:51;;;;;;;5.13;4.83;;;13.00;64.90;;;;;;4171057;28;20207;-74
2022/08/14 00:17:52;;;;;;;4.97;3.47;;;12.90;65.30;;;;;;4164077;28;20700;-74
2022/08/14 00:19:53;;;;;;;2.60;2.40;;;12.80;66.10;;;;;;4146127;28;20182;-73
2022/08/14 00:21:53;;;;;;;5.80;5.40;;;12.80;66.40;;;;;;4163273;28;20271;-73
2022/08/14 00:23:55;;;;;;;4.00;3.47;;;12.80;65.90;;;;;;4162426;28;20213;-73
2022/08/14 00:25:56;;;;;;;4.20;3.30;;;12.80;65.50;;;;;;4164328;28;20192;-73
2022/08/14 00:27:57;;;;;;;3.20;2.90;;;12.80;65.60;;;;;;4162783;28;20279;-73
2022/08/14 00:29:57;;;;;;;4.27;3.97;;;12.70;66.10;;;;;;4164401;28;20197;-73
2022/08/14 00:31:58;;;;;;;5.77;5.23;;;12.70;66.30;;;;;;4162554;28;20191;-73
2022/08/14 00:33:58;;;;;;;4.50;4.20;;;12.70;66.40;;;;;;4164092;28;20570;-74
2022/08/14 00:35:59;;;;;;;3.10;2.90;;;12.70;66.70;;;;;;4164155;28;20681;-74
2022/08/14 00:38:00;;;;;;;3.07;2.77;;;12.80;66.50;;;;;;4163812;28;20883;-73
2022/08/14 00:40:01;;;;;;;4.30;4.00;;;12.80;66.30;;;;;;4163990;28;20193;-73
2022/08/14 00:42:02;;;;;;;2.57;2.37;;;12.80;66.30;;;;;;4161755;28;20221;-75
2022/08/14 00:44:03;;;;;;;3.97;3.47;;;12.70;66.20;;;;;;4163845;28;20273;-74
2022/08/14 00:46:05;;;;;;;5.20;4.87;;;12.70;66.80;;;;;;4163837;28;20166;-74
2022/08/14 00:48:06;;;;;;;4.80;4.50;;;12.70;67.10;;;;;;4164409;28;20243;-74
2022/08/14 00:50:09;;;;;;;3.07;2.80;;;12.70;67.00;;;;;;4163504;28;20188;-74
2022/08/14 00:52:12;;;;;;;2.50;2.30;;;12.60;67.40;;;;;;4163334;28;20192;-74
2022/08/14 00:54:14;;;;;;;3.47;2.63;;;12.60;67.90;;;;;;4164011;28;20272;-76
2022/08/14 00:56:16;;;;;;;4.70;4.40;;;12.50;68.00;;;;;;4163452;28;20199;-74
2022/08/14 00:58:31;;;;;;;4.50;4.20;;;12.40;68.30;;;;;;4163316;28;20204;-74
2022/08/14 01:00:33;;;;;;;2.90;2.70;;;12.40;68.50;;;;;;4163194;28;20212;-73
2022/08/14 01:02:36;;;;;;;2.73;2.53;;;12.30;68.70;;;;;;4162577;28;20224;-75
2022/08/14 01:04:37;;;;;;;3.83;3.07;;;12.30;69.10;;;;;;4163090;28;20287;-73
2022/08/14 01:06:38;;;;;;;2.70;2.50;;;12.30;69.50;;;;;;4162450;28;20194;-75
2022/08/14 01:08:40;;;;;;;4.37;3.70;;;12.20;69.90;;;;;;4164785;28;20189;-74
2022/08/14 01:10:52;;;;;;;3.60;2.90;;;12.10;70.10;;;;;;4161916;28;20189;-75
2022/08/14 01:12:53;;;;;;;3.43;2.93;;;12.20;70.10;;;;;;4162438;28;20650;-74
2022/08/14 01:14:55;;;;;;;3.63;3.43;;;12.10;70.10;;;;;;4162420;28;20181;-75
2022/08/14 01:16:56;;;;;;;2.87;2.63;;;12.10;70.50;;;;;;4176116;28;20191;-74
2022/08/14 01:21:22;;;;;;;3.53;3.30;;;11.90;71.40;;;;;;4179886;28;20214;-74
2022/08/14 01:23:23;;;;;;;4.00;3.70;;;12.00;71.60;;;;;;4180029;28;20226;-74
2022/08/14 01:25:24;;;;;;;3.50;3.30;;;12.00;71.10;;;;;;4180274;28;20181;-74
2022/08/14 01:27:27;;;;;;;3.43;3.13;;;12.00;71.20;;;;;;4182121;28;20887;-74
2022/08/14 01:29:29;;;;;;;3.63;3.33;;;11.90;71.60;;;;;;4165557;28;20199;-74
2022/08/14 01:31:32;;;;;;;2.93;2.73;;;11.90;71.90;;;;;;4183331;28;20169;-75
2022/08/14 01:33:37;;;;;;;6.03;3.77;;;11.90;71.90;;;;;;4182943;28;20203;-75
2022/08/14 01:35:39;;;;;;;3.23;2.77;;;11.90;71.40;;;;;;4182798;28;20199;-75
2022/08/14 01:37:43;;;;;;;3.10;2.80;;;11.90;71.60;;;;;;4182334;28;20195;-75
2022/08/14 01:39:44;;;;;;;3.13;2.50;;;11.80;72.60;;;;;;4182058;28;20180;-75
2022/08/14 01:41:57;;;;;;;4.13;3.83;;;11.80;72.70;;;;;;4181325;28;20272;-75
2022/08/14 01:44:00;;;;;;;3.93;3.63;;;11.70;72.90;;;;;;4181989;28;20220;-74
2022/08/14 01:46:01;;;;;;;3.57;3.27;;;11.70;73.40;;;;;;4181215;28;20796;-75
2022/08/14 01:48:01;;;;;;;3.73;3.43;;;11.70;73.60;;;;;;4181840;28;20194;-74
2022/08/14 01:50:05;;;;;;;3.20;3.00;;;11.60;73.60;;;;;;4164859;28;20223;-75
2022/08/14 01:52:07;;;;;;;3.30;3.10;;;11.60;73.80;;;;;;4182103;28;20264;-75
2022/08/14 01:54:14;;;;;;;3.53;2.93;;;11.60;74.00;;;;;;4183039;28;20538;-75
2022/08/14 01:56:17;;;;;;;4.07;3.67;;;11.60;74.30;;;;;;4183517;28;20238;-75
2022/08/14 01:58:18;;;;;;;3.33;3.10;;;11.60;74.70;;;;;;4182380;28;20708;-75
2022/08/14 02:00:19;;;;;;;3.50;3.30;;;11.60;74.20;;;;;;4183529;28;20179;-74
2022/08/14 02:02:19;;;;;;;3.90;3.60;;;11.60;74.30;;;;;;4182171;28;20856;-75
2022/08/14 02:04:22;;;;;;;3.23;3.03;;;11.60;74.70;;;;;;4183054;28;20649;-73
2022/08/14 02:06:25;;;;;;;3.33;3.00;;;11.50;74.90;;;;;;4183285;28;20262;-74
2022/08/14 02:08:29;;;;;;;3.90;3.60;;;11.50;75.00;;;;;;4180890;28;20188;-74
2022/08/14 02:10:34;;;;;;;3.30;2.50;;;11.40;74.90;;;;;;4175451;28;20222;-75
2022/08/14 02:12:34;;;;;;;5.10;3.40;;;11.40;75.00;;;;;;4182207;28;20215;-74
2022/08/14 02:14:35;;;;;;;3.77;3.47;;;11.40;75.10;;;;;;4180746;28;20676;-74
2022/08/14 02:16:40;;;;;;;3.27;2.97;;;11.40;75.30;;;;;;4181788;28;20201;-76
2022/08/14 02:18:42;;;;;;;2.87;2.67;;;11.40;75.50;;;;;;4180285;28;20184;-73
2022/08/14 02:20:44;;;;;;;4.20;3.37;;;11.40;75.80;;;;;;4181260;28;20187;-74
2022/08/14 02:22:45;;;;;;;3.57;2.50;;;11.40;76.10;;;;;;4169390;28;20215;-74
2022/08/14 02:24:46;;;;;;;3.90;3.57;;;11.30;76.40;;;;;;4164996;28;20667;-75
2022/08/14 02:26:48;;;;;;;4.03;3.40;;;11.30;76.30;;;;;;4165346;28;20180;-74
2022/08/14 02:28:52;;;;;;;3.83;3.53;;;11.30;76.70;;;;;;4163761;28;20189;-74
2022/08/14 02:30:52;;;;;;;3.23;2.93;;;11.20;76.50;;;;;;4163391;28;20228;-73
2022/08/14 02:32:53;;;;;;;3.23;2.93;;;11.30;76.70;;;;;;4165163;28;20208;-75
2022/08/14 02:34:53;;;;;;;3.10;2.90;;;11.20;76.90;;;;;;4172157;28;20201;-74
2022/08/14 02:36:58;;;;;;;4.20;2.83;;;11.20;76.70;;;;;;4194958;28;20200;-74
2022/08/14 02:38:59;;;;;;;3.50;3.20;;;11.20;76.90;;;;;;4182244;28;20589;-73
2022/08/14 02:40:59;;;;;;;3.87;3.57;;;11.10;77.30;;;;;;4181919;28;20183;-74
2022/08/14 02:43:01;;;;;;;3.10;2.80;;;11.20;77.50;;;;;;4182005;28;20191;-74
2022/08/14 02:45:02;;;;;;;2.87;2.60;;;11.10;77.40;;;;;;4180647;28;20591;-74
2022/08/14 02:47:03;;;;;;;4.33;3.93;;;11.20;77.30;;;;;;4180327;28;20200;-74
2022/08/14 02:49:05;;;;;;;4.33;4.03;;;11.20;77.60;;;;;;4180128;28;20190;-74
2022/08/14 02:51:09;;;;;;;2.77;2.57;;;11.20;77.60;;;;;;4178612;28;20206;-75
2022/08/14 02:53:10;;;;;;;2.80;2.60;;;11.30;77.20;;;;;;4181261;28;20233;-75
2022/08/14 02:55:11;;;;;;;3.40;3.20;;;11.30;77.10;;;;;;4181413;28;20196;-74
2022/08/14 02:57:12;;;;;;;3.07;2.87;;;11.30;77.20;;;;;;4181403;28;20734;-74
2022/08/14 02:59:15;;;;;;;3.00;2.70;;;11.20;77.40;;;;;;4180891;28;20209;-75
2022/08/14 03:01:18;;;;;;;3.27;3.00;;;11.20;77.60;;;;;;4180249;28;20249;-75
2022/08/14 03:03:22;;;;;;;4.30;2.40;;;11.20;77.50;;;;;;4180910;28;20302;-73
2022/08/14 03:05:23;;;;;;;3.57;3.27;;;11.20;77.60;;;;;;4179618;28;20191;-75
2022/08/14 03:07:24;;;;;;;5.93;3.80;;;11.20;77.50;;;;;;4180962;28;20682;-75
2022/08/14 03:09:26;;;;;;;3.17;2.87;;;11.10;77.40;;;;;;4179478;28;20191;-74
2022/08/14 03:11:26;;;;;;;3.10;2.67;;;11.20;77.60;;;;;;4180184;28;20258;-74
2022/08/14 03:13:27;;;;;;;3.73;2.67;;;11.10;77.90;;;;;;4181401;28;20223;-75
2022/08/14 03:15:27;;;;;;;3.63;3.33;;;11.10;78.10;;;;;;4180626;28;20244;-74
2022/08/14 03:17:28;;;;;;;2.80;2.60;;;11.00;78.10;;;;;;4178556;28;20191;-74
2022/08/14 03:19:29;;;;;;;2.77;2.57;;;11.10;77.80;;;;;;4180236;28;20206;-74
2022/08/14 03:21:30;;;;;;;3.63;2.70;;;11.00;77.50;;;;;;4179663;28;20703;-75
2022/08/14 03:23:33;;;;;;;3.33;3.03;;;11.00;77.50;;;;;;4180138;28;20596;-75
2022/08/14 03:25:34;;;;;;;3.30;3.10;;;11.00;78.30;;;;;;4180013;28;20183;-74
2022/08/14 03:27:35;;;;;;;3.00;2.80;;;10.90;78.50;;;;;;4180082;28;20183;-74
2022/08/14 03:29:37;;;;;;;3.30;3.00;;;10.90;78.50;;;;;;4195016;28;20184;-75
2022/08/14 03:31:39;;;;;;;4.13;3.23;;;10.90;79.30;;;;;;4180441;28;20198;-75
2022/08/14 03:33:40;;;;;;;3.40;2.73;;;10.80;79.30;;;;;;4179179;28;20206;-76
2022/08/14 03:35:42;;;;;;;3.63;3.33;;;10.80;79.50;;;;;;4180039;28;20650;-75
2022/08/14 03:37:42;;;;;;;2.87;2.67;;;10.80;80.00;;;;;;4179942;28;20190;-76
2022/08/14 03:39:43;;;;;;;4.47;4.07;;;10.80;81.20;;;;;;4179654;28;20227;-75
2022/08/14 03:41:43;;;;;;;3.90;3.60;;;10.80;79.90;;;;;;4178007;28;20218;-76
2022/08/14 03:43:54;;;;;;;4.27;3.93;;;10.80;80.00;;;;;;4179983;28;20211;-75
2022/08/14 03:45:54;;;;;;;3.13;2.83;;;10.80;80.10;;;;;;4180138;28;20179;-75
2022/08/14 03:47:55;;;;;;;3.40;3.10;;;10.80;80.20;;;;;;4178624;28;20324;-75
2022/08/14 03:49:55;;;;;;;3.40;3.03;;;10.80;80.30;;;;;;4179444;28;20185;-75
2022/08/14 03:51:57;;;;;;;3.33;3.10;;;10.70;80.30;;;;;;4179758;28;20244;-76
2022/08/14 03:54:02;;;;;;;2.87;2.67;;;10.70;80.30;;;;;;4180588;28;20257;-76
2022/08/14 03:56:04;;;;;;;3.63;3.33;;;10.70;80.40;;;;;;4178655;28;20246;-75
2022/08/14 03:58:06;;;;;;;3.57;3.27;;;10.70;79.80;;;;;;4178667;28;20181;-76
2022/08/14 04:00:12;;;;;;;3.40;3.10;;;10.70;79.80;;;;;;4180247;28;20195;-75
2022/08/14 04:02:12;;;;;;;3.47;3.23;;;10.70;79.90;;;;;;4178743;28;20209;-75
2022/08/14 04:04:13;;;;;;;3.20;2.90;;;10.70;80.60;;;;;;4179138;28;20186;-76
2022/08/14 04:06:15;;;;;;;3.20;3.00;;;10.70;80.30;;;;;;4180088;28;20660;-76
2022/08/14 04:08:16;;;;;;;3.23;2.93;;;10.70;80.00;;;;;;4180660;28;20197;-76
2022/08/14 04:10:17;;;;;;;3.60;3.13;;;10.70;80.00;;;;;;4178884;28;20187;-75
2022/08/14 04:12:18;;;;;;;4.33;4.03;;;10.60;80.30;;;;;;4180637;28;20207;-75
2022/08/14 04:14:19;;;;;;;4.80;3.80;;;10.50;80.90;;;;;;4180657;28;20192;-75
2022/08/14 04:16:21;;;;;;;3.00;2.80;;;10.50;81.50;;;;;;4178439;28;20180;-75
2022/08/14 04:18:22;;;;;;;6.13;3.43;;;10.50;81.50;;;;;;4179981;28;20263;-74
2022/08/14 04:20:23;;;;;;;4.77;3.40;;;10.40;81.80;;;;;;4179396;28;20183;-74
2022/08/14 04:22:24;;;;;;;5.50;3.63;;;10.50;82.60;;;;;;4175645;28;20251;-75
2022/08/14 04:24:24;;;;;;;3.43;3.13;;;10.50;82.70;;;;;;4176651;28;20333;-75
2022/08/14 04:26:27;;;;;;;3.43;3.13;;;10.40;82.50;;;;;;4181093;28;20183;-75
2022/08/14 04:28:27;;;;;;;4.70;3.27;;;10.50;82.30;;;;;;4180400;28;20474;-75
2022/08/14 04:30:29;;;;;;;3.50;3.20;;;10.50;82.40;;;;;;4177270;28;20236;-75
2022/08/14 04:32:32;;;;;;;3.53;3.20;;;10.50;82.40;;;;;;4179329;28;20218;-75
2022/08/14 04:34:34;;;;;;;3.93;3.53;;;10.50;82.20;;;;;;4179815;28;20583;-75
2022/08/14 04:43:34;;;;;;;4.13;3.73;;;10.50;82.30;;;;;;4195993;28;20327;-75
2022/08/14 04:43:36;;;;;;;4.53;3.40;;;10.60;81.70;;;;;;4181843;28;20342;-74
2022/08/14 04:45:39;;;;;;;3.97;3.57;;;10.60;81.60;;;;;;4181480;28;20182;-74
2022/08/14 04:50:05;;;;;;;4.27;3.63;;;10.60;82.60;;;;;;4181296;28;20197;-75
2022/08/14 04:52:05;;;;;;;5.13;3.10;;;10.40;81.80;;;;;;4180410;28;20229;-75
2022/08/14 04:54:06;;;;;;;4.67;3.80;;;10.40;82.80;;;;;;4179873;28;20200;-75
2022/08/14 04:56:07;;;;;;;4.63;3.40;;;10.40;83.10;;;;;;4181634;28;20257;-75
2022/08/14 04:58:08;;;;;;;3.53;3.23;;;10.50;83.10;;;;;;4180552;28;20628;-75
2022/08/14 05:00:09;;;;;;;3.83;3.23;;;10.50;82.90;;;;;;4181408;28;20190;-75
2022/08/14 05:02:10;;;;;;;3.90;3.30;;;10.60;82.90;;;;;;4183470;28;20205;-76
2022/08/14 05:04:11;;;;;;;3.33;3.07;;;10.70;82.50;;;;;;4184265;28;20753;-75
2022/08/14 05:06:12;;;;;;;4.03;3.63;;;10.80;81.70;;;;;;4184196;28;20179;-76
2022/08/14 05:08:12;;;;;;;3.50;3.20;;;10.80;81.10;;;;;;4183835;28;20181;-74
2022/08/14 05:10:13;;;;;;;4.30;3.90;;;10.80;80.90;;;;;;4183413;28;20215;-76
2022/08/14 05:12:14;;;;;;;3.33;3.03;;;10.80;81.10;;;;;;4183194;28;20191;-75
2022/08/14 05:14:14;;;;;;;3.10;2.90;;;10.80;81.60;;;;;;4183434;28;20197;-76
2022/08/14 05:16:15;;;;;;;3.90;3.60;;;10.90;81.00;;;;;;4182933;28;20187;-75
2022/08/14 05:18:19;;;;;;;5.10;3.33;;;10.90;81.10;;;;;;4183781;28;20180;-75
2022/08/14 05:20:20;;;;;;;3.83;3.53;;;10.90;81.10;;;;;;4183211;28;20178;-75
2022/08/14 05:22:21;;;;;;;5.23;3.10;;;10.90;80.90;;;;;;4183158;28;20754;-76
2022/08/14 05:24:21;;;;;;;3.00;2.80;;;10.90;80.90;;;;;;4183056;28;20191;-75
2022/08/14 05:26:22;;;;;;;3.03;2.83;;;10.90;81.00;;;;;;4183186;28;20172;-76
2022/08/14 05:28:25;;;;;;;5.03;4.73;;;11.00;80.90;;;;;;4182623;28;20214;-76
2022/08/14 05:30:26;;;;;;;3.20;2.97;;;11.00;81.10;;;;;;4182648;28;20187;-75
2022/08/14 05:32:26;;;;;;;3.97;3.53;;;11.10;81.10;;;;;;4183192;28;20215;-75
2022/08/14 05:34:29;;;;;;;3.10;2.80;;;11.10;80.40;;;;;;4183129;28;20695;-76
2022/08/14 05:36:30;;;;;;;3.90;3.50;;;11.10;80.20;;;;;;4181749;28;20221;-75
2022/08/14 05:38:34;;;;;;;3.50;3.20;;;11.20;80.60;;;;;;4181034;28;20592;-76
2022/08/14 05:40:35;;;;;;;3.33;3.03;;;11.20;80.30;;;;;;4181246;28;20187;-75
2022/08/14 05:42:36;;;;;;;3.27;3.07;;;11.30;80.50;;;;;;4181849;28;20230;-76
2022/08/14 05:44:36;;;;;;;3.30;3.07;;;11.30;80.40;;;;;;4181855;28;20184;-75
2022/08/14 05:46:37;;;;;;;3.67;3.43;;;11.30;80.30;;;;;;4182081;28;20180;-76
2022/08/14 05:48:38;;;;;;;3.03;2.70;;;11.40;79.80;;;;;;4181004;28;20175;-76
2022/08/14 05:50:39;;;;;;;3.20;2.90;;;11.50;79.30;;;;;;4179843;28;20218;-76
2022/08/14 05:52:40;;;;;;;3.57;3.27;;;11.50;79.00;;;;;;4182210;28;20206;-75
2022/08/14 05:54:41;;;;;;;3.47;3.23;;;11.50;79.30;;;;;;4181980;28;20239;-75
2022/08/14 05:56:41;;;;;;;3.50;3.20;;;11.60;79.30;;;;;;4182275;28;20219;-76
2022/08/14 05:58:42;;;;;;;3.70;3.40;;;11.70;78.80;;;;;;4182360;28;20184;-75
2022/08/14 06:00:45;;;;;;;3.43;3.13;;;11.70;78.80;;;;;;4181435;28;20183;-76
2022/08/14 06:02:45;;;;;;;2.70;2.50;;;11.70;78.50;;;;;;4182032;28;20218;-76
2022/08/14 06:04:47;;;;;;;3.53;3.23;;;11.80;78.10;;;;;;4181047;28;20211;-74
2022/08/14 06:06:47;;;;;;;3.03;2.83;;;11.90;78.10;;;;;;4180992;28;20207;-76
2022/08/14 06:08:48;;;;;;;3.80;3.50;;;11.90;78.20;;;;;;4181096;28;20172;-76
2022/08/14 06:10:50;;;;;;;3.53;3.23;;;12.00;78.10;;;;;;4180194;28;20177;-76
2022/08/14 06:12:51;;;;;;;3.60;3.30;;;12.00;78.00;;;;;;4180182;28;20204;-76
2022/08/14 06:14:52;;;;;;;3.43;3.13;;;12.10;78.00;;;;;;4180746;28;20699;-76
2022/08/14 06:16:52;;;;;;;3.80;3.23;;;12.20;77.60;;;;;;4179326;28;20573;-75
2022/08/14 06:18:53;;;;;;;3.53;2.77;;;12.30;77.10;;;;;;4180637;28;20188;-76
2022/08/14 06:20:53;;;;;;;3.93;2.77;;;12.40;76.60;;;;;;4180094;28;20192;-76
2022/08/14 06:22:54;;;;;;;3.43;3.13;;;12.50;75.90;;;;;;4180778;28;20204;-76
2022/08/14 06:24:55;;;;;;;4.50;4.20;;;12.50;75.90;;;;;;4179340;28;20216;-76
2022/08/14 06:26:56;;;;;;;3.30;3.10;;;12.60;76.30;;;;;;4179483;28;20184;-76
2022/08/14 06:28:56;;;;;;;3.60;3.30;;;12.70;76.00;;;;;;4179284;28;20325;-77
2022/08/14 06:30:57;;;;;;;4.07;3.77;;;12.80;75.70;;;;;;4180039;28;20192;-75
2022/08/14 06:32:58;;;;;;;3.00;2.80;;;12.80;75.70;;;;;;4176205;28;20197;-77
2022/08/14 06:34:58;;;;;;;3.17;2.97;;;12.90;76.00;;;;;;4164020;28;20184;-77
2022/08/14 06:36:59;;;;;;;3.03;2.83;;;13.00;75.80;;;;;;4162734;28;20573;-76
2022/08/14 06:38:59;;;;;;;3.50;3.10;;;13.10;75.60;;;;;;4162642;28;20188;-76
2022/08/14 06:41:00;;;;;;;2.87;2.67;;;13.10;75.80;;;;;;4163258;28;20327;-76
2022/08/14 06:43:06;;;;;;;4.60;4.30;;;13.20;75.30;;;;;;4162540;28;20241;-77
2022/08/14 06:45:07;;;;;;;3.47;3.17;;;13.30;74.30;;;;;;4163845;28;20185;-76
2022/08/14 06:47:08;;;;;;;3.23;2.87;;;13.50;73.30;;;;;;4163971;28;20173;-76
2022/08/14 06:49:08;;;;;;;3.40;3.10;;;13.50;73.00;;;;;;4163839;28;20719;-76
2022/08/14 06:51:09;;;;;;;2.93;2.60;;;13.60;72.30;;;;;;4163221;28;20231;-76
2022/08/14 06:53:10;;;;;;;5.60;3.50;;;13.70;71.80;;;;;;4162452;28;20209;-75
2022/08/14 06:55:15;;;;;;;3.57;3.27;;;13.80;71.30;;;;;;4162519;28;20184;-76
2022/08/14 06:57:15;;;;;;;3.50;3.20;;;13.90;71.60;;;;;;4163588;28;20177;-76
2022/08/14 06:59:16;;;;;;;4.53;4.23;;;13.90;71.80;;;;;;4163738;28;20185;-76
2022/08/14 07:05:55;;;;;;;2.77;2.57;;;14.30;70.00;;;;;;4163556;28;20708;-76
2022/08/14 07:07:56;;;;;;;7.07;6.60;;;14.40;69.80;;;;;;4163620;28;20185;-75
2022/08/14 07:09:57;;;;;;;4.77;4.33;;;14.60;69.10;;;;;;4162682;28;20185;-76
2022/08/14 07:11:58;;;;;;;7.27;6.83;;;14.90;67.40;;;;;;4163679;28;20501;-76
2022/08/14 07:13:59;;;;;;;4.43;2.83;;;15.10;67.00;;;;;;4163465;28;20266;-76
2022/08/14 07:16:00;;;;;;;2.90;2.70;;;15.50;64.10;;;;;;4163359;28;20566;-76
2022/08/14 07:18:02;;;;;;;3.33;3.03;;;15.80;62.50;;;;;;4162246;28;20176;-76
2022/08/14 07:20:05;;;;;;;3.50;3.10;;;15.80;62.80;;;;;;4162050;28;20256;-76
2022/08/14 07:22:05;;;;;;;4.47;4.17;;;15.90;63.20;;;;;;4161101;28;20204;-76
2022/08/14 07:24:07;;;;;;;3.03;2.30;;;16.30;59.80;;;;;;4162528;28;20259;-76
2022/08/14 07:26:08;;;;;;;3.00;2.80;;;16.70;58.30;;;;;;4161979;28;20181;-76
2022/08/14 07:28:26;;;;;;;4.83;4.53;;;16.90;58.20;;;;;;4177066;28;20188;-76
2022/08/14 07:30:28;;;;;;;9.00;8.50;;;17.00;57.30;;;;;;4177990;28;20184;-76
2022/08/14 07:32:28;;;;;;;2.50;2.00;;;17.40;55.00;;;;;;4182444;28;20684;-77
2022/08/14 07:34:30;;;;;;;3.03;2.63;;;17.90;53.80;;;;;;4181391;28;20370;-77
2022/08/14 07:36:30;;;;;;;4.87;4.53;;;17.80;54.10;;;;;;4178886;28;20687;-76
2022/08/14 07:38:31;;;;;;;5.67;5.27;;;18.10;51.40;;;;;;4161815;28;20251;-77
2022/08/14 07:40:33;;;;;;;3.23;3.03;;;18.50;50.50;;;;;;4161151;28;20195;-76
2022/08/14 07:42:34;;;;;;;2.60;2.40;;;18.70;50.30;;;;;;4178293;28;20629;-76
2022/08/14 07:44:35;;;;;;;4.27;3.97;;;19.10;49.20;;;;;;4178436;28;21014;-75
2022/08/14 07:46:36;;;;;;;2.67;2.40;;;19.30;47.30;;;;;;4179739;28;20176;-76
2022/08/14 07:48:40;;;;;;;5.53;3.93;;;19.50;46.80;;;;;;4161776;28;20204;-76
2022/08/14 07:50:41;;;;;;;2.63;2.43;;;19.70;45.10;;;;;;4161221;28;20228;-76
2022/08/14 07:52:44;;;;;;;13.10;12.27;;;19.90;44.40;;;;;;4179839;28;20291;-77
2022/08/14 07:54:45;;;;;;;3.40;3.10;;;20.20;43.80;;;;;;4178173;28;20176;-76
2022/08/14 07:56:46;;;;;;;9.03;8.53;;;20.30;43.40;;;;;;4161660;28;20196;-77
2022/08/14 07:58:46;;;;;;;3.57;2.30;;;20.40;42.90;;;;;;4178342;28;20172;-76
2022/08/14 08:00:47;;;;;;;4.03;2.50;;;20.50;42.30;;;;;;4177207;28;20180;-76
2022/08/14 08:02:51;;;;;;;9.57;8.90;;;20.70;42.40;;;;;;4178075;28;20223;-76
2022/08/14 08:04:55;;;;;;;16.97;15.73;;;20.90;41.50;;;;;;4178192;28;20207;-76
2022/08/14 08:06:56;;;;;;;4.37;2.50;;;21.00;41.10;;;;;;4163099;28;20180;-75
2022/08/14 08:08:59;;;;;;;4.17;2.47;;;21.20;40.70;;;;;;4179938;28;20183;-76
2022/08/14 08:11:01;;;;;;;2.50;2.30;;;21.30;40.30;;;;;;4177678;28;20702;-77
2022/08/14 08:13:15;;;;;;;8.17;7.70;;;21.30;40.10;;;;;;4178244;28;20243;-77
2022/08/14 08:15:16;;;;;;;8.33;7.83;;;21.30;40.00;;;;;;4179725;28;20164;-76
2022/08/14 08:17:21;;;;;;;2.73;2.50;;;21.40;39.60;;;;;;4162420;28;20193;-76
2022/08/14 08:19:23;;;;;;;8.10;7.67;;;21.50;39.50;;;;;;4177784;28;20175;-77
2022/08/14 08:21:25;;;;;;;11.03;10.33;;;21.40;39.00;;;;;;4178915;28;20200;-76
2022/08/14 08:23:28;;;;;;;9.30;8.80;;;21.50;39.00;;;;;;4194902;28;20196;-76
2022/08/14 08:25:33;;;;;;;7.33;6.90;;;21.60;38.60;;;;;;4178271;28;20180;-77
2022/08/14 08:27:34;;;;;;;2.27;2.17;;;21.60;38.20;;;;;;4178212;28;20728;-76
2022/08/14 08:29:35;;;;;;;3.33;3.03;;;21.80;38.10;;;;;;4177731;28;20218;-76
2022/08/14 08:31:49;;;;;;;2.47;2.33;;;21.80;37.70;;;;;;4178280;28;20172;-78
2022/08/14 08:33:52;;;;;;;10.07;9.57;;;22.00;37.40;;;;;;4161726;28;20302;-76
2022/08/14 08:35:58;;;;;;;2.23;2.03;;;22.00;37.10;;;;;;4181095;28;20628;-76
2022/08/14 08:38:08;;;;;;;4.23;3.93;;;22.10;37.20;;;;;;4183639;28;20706;-76
2022/08/14 08:40:10;;;;;;;2.17;2.07;;;22.40;36.40;;;;;;4183679;28;20714;-75
2022/08/14 08:42:11;;;;;;;2.40;2.20;;;22.50;36.40;;;;;;4166624;28;20308;-76
2022/08/14 08:44:12;;;;;;;2.90;2.40;;;22.80;35.70;;;;;;4183371;28;20180;-76
2022/08/14 08:46:20;;;;;;;2.80;2.60;;;22.80;35.10;;;;;;4183848;28;20596;-76
2022/08/14 08:48:22;;;;;;;2.47;2.33;;;22.90;34.70;;;;;;4183121;28;20206;-76
2022/08/14 08:50:33;;;;;;;3.47;2.30;;;23.30;34.00;;;;;;4184083;28;20204;-77
2022/08/14 08:52:34;;;;;;;7.33;6.83;;;23.30;33.40;;;;;;4183298;28;20231;-76
2022/08/14 08:54:34;;;;;;;9.83;9.20;;;23.30;33.70;;;;;;4184596;28;20192;-76
2022/08/14 08:56:48;;;;;;;9.97;9.37;;;23.20;33.90;;;;;;4182965;28;20265;-76
2022/08/14 08:58:49;;;;;;;183.13;167.73;;;23.00;33.50;;;;;;4183164;28;20173;-76
2022/08/14 09:00:54;;;;;;;5.20;4.80;;;22.90;33.30;;;;;;4183554;28;20291;-76
2022/08/14 09:02:59;;;;;;;6.13;5.57;;;23.20;33.60;;;;;;4183714;28;20306;-76
2022/08/14 09:05:03;;;;;;;28.77;27.00;;;23.20;33.20;;;;;;4184533;28;20183;-76
2022/08/14 09:07:05;;;;;;;2.47;2.30;;;23.10;32.10;;;;;;4183842;28;20624;-76
2022/08/14 09:09:49;;;;;;;8.17;7.70;;;23.30;31.50;;;;;;4183677;28;20226;-76
2022/08/14 09:11:53;;;;;;;3.03;2.80;;;23.40;31.10;;;;;;4184168;28;20575;-76
2022/08/14 09:13:54;;;;;;;47.37;44.20;;;23.80;30.90;;;;;;4183654;28;20204;-76
2022/08/14 09:15:55;;;;;;;8.27;7.73;;;23.90;30.80;;;;;;4183474;28;20206;-78
2022/08/14 09:17:57;;;;;;;4.07;3.43;;;23.80;30.80;;;;;;4166761;28;20216;-76
2022/08/14 09:19:58;;;;;;;3.90;3.70;;;23.80;30.70;;;;;;4183613;28;20211;-76
2022/08/14 09:21:59;;;;;;;2.33;2.23;;;23.80;30.50;;;;;;4166072;28;20213;-75
2022/08/14 09:24:00;;;;;;;3.37;3.07;;;23.90;29.10;;;;;;4166180;28;20754;-75
2022/08/14 09:26:01;;;;;;;2.33;2.13;;;24.10;28.50;;;;;;4166339;28;20185;-75
2022/08/14 09:28:03;;;;;;;2.27;2.00;;;24.20;28.10;;;;;;4167559;28;20272;-75
2022/08/14 09:30:08;;;;;;;1.90;1.80;;;24.50;27.50;;;;;;4166085;28;20330;-75
2022/08/14 09:32:15;;;;;;;3.90;3.70;;;24.40;28.10;;;;;;4182276;28;20184;-75
2022/08/14 09:34:44;;;;;;;2.20;2.10;;;24.60;27.90;;;;;;4166960;28;20196;-75
2022/08/14 09:37:06;;;;;;;7.77;7.37;;;24.90;28.40;;;;;;4183404;28;20187;-75
2022/08/14 09:39:19;;;;;;;3.47;3.17;;;24.70;28.50;;;;;;4167495;28;20181;-75
2022/08/14 09:42:02;;;;;;;4.17;3.87;;;24.90;28.00;;;;;;4167065;28;20610;-74
2022/08/14 09:44:29;;;;;;;2.47;2.10;;;24.70;27.10;;;;;;4183163;28;20242;-75
2022/08/14 09:46:30;;;;;;;4.67;3.63;;;25.10;26.80;;;;;;4166479;28;20213;-76
2022/08/14 09:48:30;;;;;;;3.07;2.47;;;25.40;26.10;;;;;;4164406;28;20192;-75
2022/08/14 09:50:45;;;;;;;1.80;1.70;;;25.30;25.40;;;;;;4179534;28;20192;-75
2022/08/14 09:52:52;;;;;;;3.67;3.33;;;25.40;24.90;;;;;;4180238;28;20192;-75
2022/08/14 09:54:53;;;;;;;2.73;2.30;;;25.40;25.00;;;;;;4163579;28;20172;-76
2022/08/14 09:56:54;;;;;;;2.43;2.23;;;25.40;24.60;;;;;;4163425;28;20185;-75
2022/08/14 09:59:09;;;;;;;4.27;2.03;;;25.60;23.60;;;;;;4163564;28;20548;-75
2022/08/14 10:01:18;;;;;;;1.87;1.77;;;25.80;23.70;;;;;;4164162;28;20173;-75
2022/08/14 10:03:35;;;;;;;1.80;1.70;;;26.30;23.20;;;;;;4179812;28;20578;-74
2022/08/14 10:05:37;;;;;;;3.37;3.13;;;26.70;22.90;;;;;;4180062;28;20205;-78
2022/08/14 10:07:51;;;;;;;1.80;1.70;;;26.60;23.00;;;;;;4164074;28;20183;-75
2022/08/14 10:09:52;;;;;;;2.20;2.00;;;26.30;23.50;;;;;;4180044;28;20251;-76
2022/08/14 10:11:57;;;;;;;1.80;1.70;;;26.70;23.20;;;;;;4163181;28;20184;-75
2022/08/14 10:14:17;;;;;;;3.37;1.77;;;27.40;21.90;;;;;;4163526;28;20730;-76
2022/08/14 10:16:18;;;;;;;3.10;2.90;;;27.60;22.10;;;;;;4179964;28;20246;-75
2022/08/14 10:18:25;;;;;;;26.43;25.00;;;27.40;21.80;;;;;;4163337;28;20343;-75
2022/08/14 10:20:37;;;;;;;2.10;2.00;;;27.10;22.20;;;;;;4179460;28;20227;-75
2022/08/14 10:22:38;;;;;;;2.60;2.40;;;27.50;22.30;;;;;;4179175;28;20295;-75
2022/08/14 10:24:45;;;;;;;2.53;2.33;;;27.80;22.10;;;;;;4179636;28;20598;-75
2022/08/14 10:27:00;;;;;;;3.13;2.83;;;28.30;22.10;;;;;;4163744;28;20259;-75
2022/08/14 10:29:09;;;;;;;4.03;3.30;;;28.70;22.00;;;;;;4162766;28;20185;-74
2022/08/14 10:31:22;;;;;;;5.40;5.05;;;29.70;20.60;;;;;;4164040;28;20691;-75
2022/08/14 10:33:29;;;;;;;4.38;4.18;;;29.30;20.90;;;;;;4163205;28;20216;-74
2022/08/14 10:35:40;;;;;;;4.05;3.80;;;29.10;20.90;;;;;;4162934;28;20193;-74
2022/08/14 10:37:50;;;;;;;11.55;10.77;;;29.30;21.30;;;;;;4163694;28;20260;-74
2022/08/14 10:40:00;;;;;;;6.18;5.78;;;30.30;20.00;;;;;;4162907;28;20184;-74
2022/08/14 10:42:13;;;;;;;44.30;36.92;;;30.50;19.50;;;;;;4162079;28;20242;-74
2022/08/14 10:44:20;;;;;;;92.75;67.22;;;30.90;19.40;;;;;;4163060;28;20278;-73
2022/08/14 10:46:21;;;;;;;8.40;7.80;;;32.00;18.30;;;;;;4162777;28;20180;-74
2022/08/14 10:48:21;;;;;;;27.98;25.95;;;31.50;18.40;;;;;;4162593;28;20905;-74
2022/08/14 10:50:36;;;;;;;104.47;94.00;;;31.20;18.90;;;;;;4178412;28;20628;-73
2022/08/14 10:52:37;;;;;;;17.67;16.55;;;30.90;19.20;;;;;;4162667;28;20197;-75
2022/08/14 10:54:41;;;;;;;109.72;93.25;;;31.00;19.10;;;;;;4170649;28;20727;-73